Thursday, April 26, 2018, 5:44 AM EDT
Back to Local

KISP, Islip Long Island Mac Art

Location: Ronkonkoma, NY, United States Lat: 40.8
Local Time: 5:44 AM EDT ( 9:44 GMT) Lon: -73.1
Time Zone: US/Eastern Elev: 98 ft

Show me the last for .
Show Decoded

2018-04-26 05:18 METAR KISP 260918Z AUTO 00000KT 3SM BR OVC003 12/12 A2958 RMK AO2 T01170117 =
2018-04-26 04:56 METAR KISP 260856Z AUTO 00000KT 2 1/2SM BR OVC004 12/12 A2958 RMK AO2 RAE01
                 SLP017 P0000 60000 T01170117 53003 =
2018-04-26 04:48 METAR KISP 260848Z AUTO 00000KT 3SM BR BKN003 OVC008 12/12 A2959 RMK AO2 RAE01
                 P0000 T01170117 =
2018-04-26 04:36 METAR KISP 260836Z AUTO 00000KT 2 1/2SM BR OVC003 12/12 A2959 RMK AO2 RAE01
                 P0000 T01170117 =
2018-04-26 04:25 METAR KISP 260825Z AUTO 26004KT 1 1/2SM BR OVC003 12/12 A2959 RMK AO2 RAE01
                 P0000 T01170117 =
2018-04-26 03:56 METAR KISP 260756Z AUTO 00000KT 1/2SM R06/3000V4000FT -RA FG VV002 12/12 A2958
                 RMK AO2 RAB50 SLP015 P0000 T01170117 =
2018-04-26 03:34 METAR KISP 260734Z AUTO 32003KT 1/4SM R06/2200V2400FT FG VV002 12/12 A2957 RMK
                 AO2 T01170117 =
2018-04-26 02:56 METAR KISP 260656Z AUTO 00000KT 1/4SM R06/1600FT FG VV002 11/11 A2958 RMK AO2
                 SLP014 T01110111 =
2018-04-26 01:56 METAR KISP 260556Z AUTO 00000KT 1/4SM R06/1800V2000FT FG VV002 12/12 A2960 RMK
                 AO2 SLP024 60000 T01170117 10133 20106 56021 =
2018-04-26 01:44 METAR KISP 260544Z AUTO 00000KT 1/4SM R06/1800V2200FT FG VV002 12/12 A2961 RMK
                 AO2 T01170117 =
2018-04-26 00:56 METAR KISP 260456Z AUTO 11003KT 1/2SM R06/2600V3000FT FG VV002 11/11 A2962 RMK
                 AO2 SLP030 T01110111 401390106 =
2018-04-26 00:25 METAR KISP 260425Z AUTO 00000KT 3/4SM R06/4000FT BR VV002 11/11 A2963 RMK AO2
                 T01110111 =
2018-04-26 00:14 METAR KISP 260414Z AUTO 30005KT 1SM R06/4000V4500FT BR VV002 11/11 A2963 RMK AO2
                 T01060106 =
2018-04-25 23:56 METAR KISP 260356Z 26006KT 3/4SM R06/3000V4000FT BR OVC002 11/11 A2964 RMK AO2
                 SLP037 LAST T01060106 =
2018-04-25 22:56 METAR KISP 260256Z 18007KT 1/4SM R06/3000V3500FT FG OVC002 11/11 A2967 RMK AO2
                 SFC VIS 1/2 SLP046 60000 T01060106 56004 =
2018-04-25 22:43 METAR KISP 260243Z 18006KT 1/8SM R06/2000V3500FT FG OVC002 11/11 A2967 RMK AO2
                 SFC VIS 1/2 T01060106 =
2018-04-25 22:20 METAR KISP 260220Z 19005KT 1/8SM R06/1600V1800FT FG OVC002 11/11 A2967 RMK AO2
                 SFC VIS 1/4 LTG DSNT NE T01060106 =
2018-04-25 21:56 METAR KISP 260156Z 20006KT 1/4SM R06/2400V4000FT BR OVC002 11/11 A2968 RMK AO2
                 SFC VIS 3/4 DZE01RAB37E51 SLP050 P0000 T01110111 =
2018-04-25 20:56 METAR KISP 260056Z 16005KT 1/4SM R06/3000V4000FT -DZ FG OVC002 12/12 A2967 RMK
                 AO2 SFC VIS 1/2 SLP046 P0000 T01220122 =
2018-04-25 19:56 METAR KISP 252356Z 15006KT 1/2SM R06/6000VP6000FT -DZ BR OVC002 13/13 A2968 RMK
                 AO2 SFC VIS 1 LTG DSNT E RAE15DZB39 SLP050 P0006 60015 T01330133 10139 20122
                 56011 =
2018-04-25 19:40 METAR KISP 252340Z 13007KT 1/2SM R06/6000VP6000FT -DZ BR OVC002 13/13 A2968 RMK
                 AO2 SFC VIS 1 RAE15DZB39 P0006 T01330133 =
2018-04-25 18:56 METAR KISP 252256Z 15005KT 1SM R06/5000VP6000FT -RA BR OVC002 13/13 A2968 RMK
                 AO2 SFC VIS 2 RAB22 SLP051 P0008 T01330133 =
2018-04-25 18:27 METAR KISP 252227Z 17005KT 1/2SM R06/5000VP6000FT -RA BR OVC002 13/13 A2969 RMK
                 AO2 SFC VIS 1 RAB22 P0000 T01330133 =
2018-04-25 17:56 METAR KISP 252156Z 18006KT 1/8SM R06/2200V4000FT FG OVC002 13/13 A2970 RMK AO2
                 SFC VIS 1/4 RAB02E30 SLP055 P0001 T01330133 =
2018-04-25 16:56 METAR KISP 252056Z 16009KT 1/8SM R06/2400V5000FT FG OVC002 13/13 A2971 RMK AO2
                 SFC VIS 1/4 RAB37E47 SLP061 P0000 60000 T01280128 56020 =
2018-04-25 15:56 METAR KISP 251956Z 14007KT 1/4SM R06/4500VP6000FT FG OVC002 13/13 A2972 RMK AO2
                 SFC VIS 1/2 DZE17B45E54 SLP064 P0000 T01330133 =
2018-04-25 14:56 METAR KISP 251856Z 13011KT 1/4SM R06/3000V3500FT -DZ BR OVC002 13/13 A2975 RMK
                 AO2 SFC VIS 3/4 SLP072 P0000 T01330133 =
2018-04-25 13:56 METAR KISP 251756Z 12017KT 1SM R06/5500VP6000FT -DZ BR OVC003 14/14 A2977 RMK
                 AO2 PK WND 12026/1717 SFC VIS 1 1/2 RAB22E54DZB54 SLP081 P0001 60007 T01390139
                 10139 20122 56025 =
2018-04-25 12:56 METAR KISP 251656Z 13016KT 1/2SM R06/3500VP6000FT BR OVC002 13/13 A2980 RMK AO2
                 SFC VIS 1 RAE47 SLP091 P0001 T01330133 =
2018-04-25 12:50 METAR KISP 251650Z 12017KT 1/2SM R06/4000VP6000FT BR OVC002 13/13 A2981 RMK AO2
                 SFC VIS 1 RAE47 P0001 =
2018-04-25 11:56 METAR KISP 251556Z 11015G22KT 3SM -RA BR OVC003 14/14 A2985 RMK AO2 SLP106 P0000
                 T01390139 =
2018-04-25 10:56 METAR KISP 251456Z 12016G22KT 4SM -RA BR OVC003 13/13 A2988 RMK AO2 RAB03 SLP118
                 P0001 60005 T01330133 56029 =
2018-04-25 09:56 METAR KISP 251356Z 11018G25KT 7SM OVC004 14/13 A2991 RMK AO2 PK WND 11027/1332
                 RAE27 SLP126 P0001 T01390133 =
2018-04-25 09:10 METAR KISP 251310Z 11013KT 7SM -RA BKN006 BKN011 OVC016 13/13 A2992 RMK AO2
                 P0001 T01280128 =
2018-04-25 08:56 METAR KISP 251256Z 10014KT 1SM R06/5000VP6000FT -RA BR BKN006 OVC022 13/13 A2993
                 RMK AO2 SFC VIS 2 RAB1158E29B45 SLP134 P0003 T01280128 =
2018-04-25 07:56 METAR KISP 251156Z 12015KT 1 1/2SM BR OVC003 12/12 A2997 RMK AO2 SFC VIS 3 RAE41
                 SLP148 P0001 60016 70016 T01220122 10128 20117 56020 =
2018-04-25 06:56 METAR KISP 251056Z 11014KT 1 1/2SM -RA BR OVC003 12/12 A2999 RMK AO2 SLP154
                 P0007 T01220122 =
2018-04-25 06:44 METAR KISP 251044Z 11012KT 1 1/2SM R06/5500VP6000FT -RA BR OVC003 12/12 A2999
                 RMK AO2 P0006 T01220122 =
2018-04-25 05:56 METAR KISP 250956Z 11011KT 2SM -RA BR BKN005 BKN015 OVC030 12/12 A3000 RMK AO2
                 SLP159 P0004 T01220122 =

Support USWX by starting your Amazon purchase here.